Terminal Aerodrome Forecast
Issued by NWS

Home | Current Version | Previous Version | Text Only | Print | Product List | Glossary On
Versions: 1 2 3 4 5 6 7 8 9 10 11 12 13 14
000
FTAK31 PANC 231730
TAFAVD
TAF
PAVD 231730Z 2318/2418 VRB05KT P6SM SCT012 BKN150
      TEMPO 2318/2320 BKN012
     FM232100 25007KT P6SM BKN100
     FM240600 VRB03KT P6SM BKN100
     FM241600 VRB03KT 6SM -RA BKN015 OVC025
      AMD LTD TO CLD VIS AND WIND=

USA.gov is the U.S. government's official web portal to all federal, state and local government web resources and services.